createdAt,value
2019-05-01T00:01:53.421Z,20.75
2019-05-01T00:04:24.686Z,16.52
2019-05-01T00:06:55.939Z,12.80
2019-05-01T00:09:25.748Z,13.90
2019-05-01T00:11:55.368Z,20.02
2019-05-01T00:14:26.695Z,20.35
2019-05-01T00:16:56.293Z,18.05
2019-05-01T00:19:25.966Z,18.40
2019-05-01T00:21:55.645Z,16.52
2019-05-01T00:24:25.298Z,17.07
2019-05-01T00:26:54.956Z,21.25
2019-05-01T00:29:24.532Z,17.30
2019-05-01T00:31:54.197Z,14.15
2019-05-01T00:34:23.882Z,16.52
2019-05-01T00:36:53.520Z,14.03
2019-05-01T00:39:23.162Z,17.15
2019-05-01T00:41:52.847Z,21.77
2019-05-01T00:44:22.549Z,20.30
2019-05-01T00:46:53.267Z,18.70
2019-05-01T00:49:23.754Z,14.85
2019-05-01T00:51:53.452Z,21.68
2019-05-01T00:54:23.086Z,20.30
2019-05-01T00:56:57.070Z,23.15
2019-05-01T00:59:28.334Z,23.07
2019-05-01T01:01:59.566Z,18.98
2019-05-01T01:04:29.269Z,20.02
2019-05-01T01:06:58.837Z,18.23
2019-05-01T01:09:28.427Z,19.15
2019-05-01T01:11:57.968Z,21.30
2019-05-01T01:14:27.622Z,22.20
2019-05-01T01:16:57.242Z,20.40
2019-05-01T01:19:26.941Z,19.98
2019-05-01T01:21:56.559Z,19.40
2019-05-01T01:24:26.750Z,24.27
2019-05-01T01:26:57.584Z,22.15
2019-05-01T01:29:27.305Z,20.82
2019-05-01T01:31:56.910Z,21.85
2019-05-01T01:34:26.580Z,20.08
2019-05-01T01:36:56.184Z,20.75
2019-05-01T01:39:25.689Z,23.32
2019-05-01T01:41:55.754Z,19.62
2019-05-01T01:44:25.797Z,20.92
2019-05-01T01:46:57.148Z,17.98
2019-05-01T01:49:26.816Z,23.27
2019-05-01T01:51:56.570Z,23.35
2019-05-01T01:54:26.372Z,20.55
2019-05-01T01:56:56.380Z,21.80
2019-05-01T01:59:26.379Z,20.82
2019-05-01T02:01:57.660Z,19.90
2019-05-01T02:04:28.958Z,19.17
2019-05-01T02:06:58.679Z,22.27
2019-05-01T02:09:28.526Z,19.50
2019-05-01T02:11:58.434Z,19.15
2019-05-01T02:14:28.075Z,19.60
2019-05-01T02:16:57.713Z,18.73
2019-05-01T02:19:27.334Z,21.65
2019-05-01T02:21:57.019Z,18.62
2019-05-01T02:24:26.684Z,18.55
2019-05-01T02:27:01.563Z,17.73
2019-05-01T02:29:32.962Z,17.82
2019-05-01T02:32:03.387Z,18.40
2019-05-01T02:34:34.159Z,17.00
2019-05-01T02:39:35.503Z,19.87
2019-05-01T02:42:06.568Z,19.40
2019-05-01T02:44:40.479Z,17.73
2019-05-01T02:47:12.969Z,17.12
2019-05-01T02:49:45.649Z,18.77
2019-05-01T02:52:16.125Z,18.20
2019-05-01T02:54:48.145Z,18.10
2019-05-01T02:57:20.732Z,19.77
2019-05-01T02:59:52.895Z,20.35
2019-05-01T03:02:25.484Z,20.45
2019-05-01T03:04:56.848Z,17.82
2019-05-01T03:07:29.041Z,18.85
2019-05-01T03:09:59.783Z,18.48
2019-05-01T03:12:31.472Z,18.73
2019-05-01T03:15:03.843Z,19.95
2019-05-01T03:17:38.036Z,19.77
2019-05-01T03:20:09.620Z,19.23
2019-05-01T03:22:41.169Z,20.62
2019-05-01T03:25:12.086Z,21.68
2019-05-01T03:27:43.247Z,19.10
2019-05-01T03:30:13.258Z,19.73
2019-05-01T03:32:43.004Z,18.23
2019-05-01T03:35:12.714Z,17.92
2019-05-01T03:37:42.377Z,17.50
2019-05-01T03:40:13.827Z,19.12
2019-05-01T03:42:43.744Z,20.35
2019-05-01T03:45:13.548Z,19.27
2019-05-01T03:47:43.307Z,20.85
2019-05-01T03:50:12.910Z,15.88
2019-05-01T03:52:42.570Z,23.40
2019-05-01T03:55:12.355Z,16.45
2019-05-01T03:57:42.502Z,18.57
2019-05-01T04:00:13.917Z,19.30
2019-05-01T04:03:09.889Z,19.17
2019-05-01T04:05:39.513Z,19.15
2019-05-01T04:08:09.284Z,18.85
2019-05-01T04:10:38.797Z,20.43
2019-05-01T04:13:08.512Z,21.20
2019-05-01T04:15:38.269Z,20.75
2019-05-01T04:18:09.469Z,17.05
2019-05-01T04:20:40.807Z,16.12
2019-05-01T04:23:10.478Z,16.70
2019-05-01T04:25:40.487Z,18.60
2019-05-01T04:28:12.068Z,18.12
2019-05-01T04:30:43.373Z,23.25
2019-05-01T04:33:14.632Z,22.55
2019-05-01T04:35:46.035Z,18.52
2019-05-01T04:38:15.683Z,22.27
2019-05-01T04:40:45.743Z,17.42
2019-05-01T04:43:15.428Z,18.77
2019-05-01T04:45:45.397Z,18.80
2019-05-01T04:48:15.502Z,18.73
2019-05-01T04:50:45.208Z,19.62
2019-05-01T04:53:15.645Z,19.32
2019-05-01T04:55:45.917Z,18.95
2019-05-01T04:58:15.724Z,17.98
2019-05-01T05:00:45.466Z,19.75
2019-05-01T05:03:16.840Z,16.97
2019-05-01T05:05:47.786Z,17.77
2019-05-01T05:08:17.451Z,17.17
2019-05-01T05:10:48.823Z,16.97
2019-05-01T05:13:20.049Z,15.95
2019-05-01T05:15:53.121Z,20.60
2019-05-01T05:18:22.874Z,20.27
2019-05-01T05:20:52.999Z,19.32
2019-05-01T05:23:23.369Z,16.02
2019-05-01T05:25:53.216Z,16.85
2019-05-01T05:28:24.321Z,17.30
2019-05-01T05:30:56.427Z,16.45
2019-05-01T05:33:29.145Z,15.65
2019-05-01T05:35:59.605Z,14.65
2019-05-01T05:38:34.123Z,15.75
2019-05-01T05:41:04.315Z,20.15
2019-05-01T05:43:33.990Z,15.63
2019-05-01T05:46:04.613Z,15.15
2019-05-01T05:48:35.349Z,15.88
2019-05-01T05:51:09.235Z,15.68
2019-05-01T05:53:41.944Z,17.52
2019-05-01T05:56:16.287Z,15.70
2019-05-01T05:58:49.825Z,16.48
2019-05-01T06:01:23.804Z,16.87
2019-05-01T06:03:57.237Z,18.45
2019-05-01T06:06:30.486Z,17.52
2019-05-01T06:09:04.255Z,16.35
2019-05-01T06:11:37.405Z,18.50
2019-05-01T06:14:10.450Z,17.23
2019-05-01T06:16:41.413Z,17.62
2019-05-01T06:19:14.607Z,17.17
2019-05-01T06:21:45.990Z,16.27
2019-05-01T06:24:18.354Z,20.25
2019-05-01T06:26:47.937Z,15.65
2019-05-01T06:29:17.583Z,18.52
2019-05-01T06:31:47.358Z,18.07
2019-05-01T06:34:17.213Z,18.17
2019-05-01T06:36:49.738Z,16.75
2019-05-01T06:39:18.366Z,17.30
2019-05-01T06:41:48.326Z,16.45
2019-05-01T06:44:19.843Z,20.52
2019-05-01T06:46:58.279Z,16.05
2019-05-01T06:49:29.491Z,17.00
2019-05-01T06:52:00.895Z,16.00
2019-05-01T06:54:31.911Z,16.95
2019-05-01T06:57:03.672Z,15.50
2019-05-01T06:59:35.734Z,17.42
2019-05-01T07:02:06.136Z,15.50
2019-05-01T07:04:37.789Z,15.78
2019-05-01T07:07:23.997Z,14.07
2019-05-01T07:09:39.539Z,15.30
2019-05-01T07:12:11.259Z,14.13
2019-05-01T07:14:40.886Z,13.65
2019-05-01T07:17:13.605Z,13.58
2019-05-01T07:19:45.032Z,12.98
2019-05-01T07:22:14.759Z,13.72
2019-05-01T07:24:44.462Z,13.30
2019-05-01T07:27:14.108Z,12.40
2019-05-01T07:29:46.653Z,12.07
2019-05-01T07:32:16.483Z,12.58
2019-05-01T07:34:48.962Z,13.75
2019-05-01T07:37:20.865Z,13.55
2019-05-01T07:39:51.736Z,16.35
2019-05-01T07:42:23.395Z,12.28
2019-05-01T07:44:54.973Z,13.65
2019-05-01T07:47:30.445Z,13.45
2019-05-01T07:50:02.087Z,13.18
2019-05-01T07:52:31.727Z,16.85
2019-05-01T07:55:01.946Z,12.03
2019-05-01T07:57:34.146Z,10.82
2019-05-01T08:00:10.043Z,13.43
2019-05-01T08:02:39.630Z,11.88
2019-05-01T08:05:10.406Z,19.32
2019-05-01T08:07:40.593Z,13.60
2019-05-01T08:10:10.748Z,14.43
2019-05-01T08:12:40.319Z,13.25
2019-05-01T08:15:10.319Z,14.95
2019-05-01T08:17:56.849Z,15.58
2019-05-01T08:20:32.536Z,13.22
2019-05-01T08:23:02.267Z,14.00
2019-05-01T08:25:33.160Z,14.53
2019-05-01T08:28:04.771Z,14.90
2019-05-01T08:30:36.139Z,15.85
2019-05-01T08:33:09.908Z,17.35
2019-05-01T08:35:38.892Z,13.88
2019-05-01T08:38:08.433Z,13.88
2019-05-01T08:40:38.290Z,14.23
2019-05-01T08:43:07.828Z,14.23
2019-05-01T08:45:40.617Z,14.15
2019-05-01T08:48:11.995Z,11.97
2019-05-01T08:50:41.739Z,12.45
2019-05-01T08:53:11.343Z,12.95
2019-05-01T08:55:45.215Z,12.40
2019-05-01T08:58:14.014Z,12.55
2019-05-01T09:00:43.455Z,13.32
2019-05-01T09:03:13.660Z,15.58
2019-05-01T09:05:44.423Z,14.73
2019-05-01T09:08:14.074Z,11.63
2019-05-01T09:10:43.706Z,10.72
2019-05-01T09:13:13.374Z,12.43
2019-05-01T09:15:43.716Z,12.18
2019-05-01T09:18:14.370Z,11.20
2019-05-01T09:20:45.568Z,10.08
2019-05-01T09:23:16.179Z,13.85
2019-05-01T09:25:47.528Z,12.75
2019-05-01T09:28:18.767Z,16.60
2019-05-01T09:30:49.969Z,15.15
2019-05-01T09:33:19.557Z,13.05
2019-05-01T09:35:49.221Z,14.50
2019-05-01T09:38:18.929Z,16.32
2019-05-01T09:40:48.540Z,12.40
2019-05-01T09:43:18.206Z,13.30
2019-05-01T09:45:48.438Z,11.90
2019-05-01T09:48:18.078Z,12.15
2019-05-01T09:50:49.273Z,13.78
2019-05-01T09:53:20.565Z,13.72
2019-05-01T09:55:51.752Z,13.40
2019-05-01T09:58:21.429Z,13.10
2019-05-01T10:00:53.964Z,11.55
2019-05-01T10:05:52.784Z,14.73
2019-05-01T10:08:22.465Z,12.85
2019-05-01T10:10:52.143Z,13.03
2019-05-01T10:13:22.392Z,12.90
2019-05-01T10:15:53.012Z,14.78
2019-05-01T10:18:22.705Z,11.78
2019-05-01T10:20:52.267Z,14.93
2019-05-01T10:23:21.758Z,12.90
2019-05-01T10:25:52.981Z,13.30
2019-05-01T10:28:24.268Z,12.78
2019-05-01T10:30:55.612Z,11.75
2019-05-01T10:33:33.861Z,12.00
2019-05-01T10:36:05.312Z,12.45
2019-05-01T10:38:34.990Z,11.90
2019-05-01T10:41:09.194Z,13.15
2019-05-01T10:46:05.047Z,14.55
2019-05-01T10:48:34.723Z,13.22
2019-05-01T10:51:04.790Z,13.10
2019-05-01T10:53:34.492Z,10.95
2019-05-01T10:56:04.262Z,11.35
2019-05-01T10:58:33.861Z,11.90
2019-05-01T11:01:05.095Z,12.68
2019-05-01T11:03:34.765Z,11.55
2019-05-01T11:06:04.526Z,13.95
2019-05-01T11:08:34.165Z,12.70
2019-05-01T11:11:03.717Z,16.55
2019-05-01T11:13:33.399Z,13.50
2019-05-01T11:16:03.072Z,12.20
2019-05-01T11:18:32.724Z,10.60
2019-05-01T11:21:02.318Z,15.28
2019-05-01T11:23:32.384Z,10.10
2019-05-01T11:26:02.214Z,11.48
2019-05-01T11:28:31.718Z,12.65
2019-05-01T11:31:01.369Z,14.33
2019-05-01T11:33:32.618Z,15.13
2019-05-01T11:36:09.610Z,13.45
2019-05-01T11:38:35.583Z,13.45
2019-05-01T11:41:06.942Z,15.95
2019-05-01T11:43:36.549Z,17.75
2019-05-01T11:46:06.217Z,16.93
2019-05-01T11:48:35.897Z,15.38
2019-05-01T11:51:05.531Z,14.60
2019-05-01T11:53:35.160Z,11.70
2019-05-01T11:56:04.988Z,12.78
2019-05-01T11:58:35.657Z,12.37
2019-05-01T12:01:06.407Z,15.53
2019-05-01T12:03:36.037Z,13.83
2019-05-01T12:06:06.529Z,14.03
2019-05-01T12:08:36.078Z,15.50
2019-05-01T12:11:07.999Z,11.48
2019-05-01T12:16:09.640Z,10.68
2019-05-01T12:18:41.123Z,11.03
2019-05-01T12:21:10.755Z,12.93
2019-05-01T12:23:40.462Z,10.98
2019-05-01T12:26:10.096Z,13.30
2019-05-01T12:28:39.680Z,11.00
2019-05-01T12:31:09.281Z,13.68
2019-05-01T12:33:38.800Z,12.73
2019-05-01T12:36:09.175Z,10.85
2019-05-01T12:38:38.785Z,12.05
2019-05-01T12:41:11.421Z,8.83
2019-05-01T12:43:41.141Z,12.45
2019-05-01T12:46:12.442Z,14.23
2019-05-01T12:48:42.368Z,9.78
2019-05-01T12:51:11.941Z,10.95
2019-05-01T12:53:43.199Z,11.00
2019-05-01T12:56:14.423Z,9.85
2019-05-01T12:58:44.067Z,10.45
2019-05-01T13:01:13.844Z,11.48
2019-05-01T13:03:43.410Z,11.45
2019-05-01T13:06:14.496Z,11.90
2019-05-01T13:08:44.301Z,11.38
2019-05-01T13:11:13.948Z,12.93
2019-05-01T13:13:43.587Z,9.45
2019-05-01T13:16:14.294Z,9.30
2019-05-01T13:18:43.936Z,11.00
2019-05-01T13:21:13.578Z,11.55
2019-05-01T13:23:43.275Z,9.25
2019-05-01T13:26:14.762Z,11.88
2019-05-01T13:28:46.051Z,10.70
2019-05-01T13:31:17.260Z,12.25
2019-05-01T13:33:46.994Z,9.80
2019-05-01T13:36:17.012Z,11.75
2019-05-01T13:38:46.743Z,10.50
2019-05-01T13:41:16.388Z,9.68
2019-05-01T13:43:46.050Z,11.12
2019-05-01T13:46:15.705Z,14.53
2019-05-01T13:48:45.359Z,11.88
2019-05-01T13:51:15.059Z,13.25
2019-05-01T13:53:44.694Z,13.10
2019-05-01T13:56:14.321Z,13.13
2019-05-01T13:58:44.005Z,9.78
2019-05-01T14:01:14.409Z,10.60
2019-05-01T14:03:44.180Z,9.95
2019-05-01T14:06:13.723Z,15.83
2019-05-01T14:08:43.360Z,17.23
2019-05-01T14:11:13.033Z,13.18
2019-05-01T14:13:42.637Z,14.23
2019-05-01T14:16:14.430Z,15.20
2019-05-01T14:18:44.041Z,12.33
2019-05-01T14:21:15.305Z,13.13
2019-05-01T14:23:48.169Z,13.85
2019-05-01T14:26:17.769Z,11.45
2019-05-01T14:28:48.957Z,14.60
2019-05-01T14:31:18.608Z,14.00
2019-05-01T14:33:48.310Z,11.25
2019-05-01T14:36:17.964Z,12.47
2019-05-01T14:38:47.540Z,11.73
2019-05-01T14:41:19.004Z,9.33
2019-05-01T14:43:48.544Z,13.05
2019-05-01T14:46:18.155Z,11.45
2019-05-01T14:48:47.779Z,10.43
2019-05-01T14:51:17.424Z,8.10
2019-05-01T14:53:47.093Z,13.60
2019-05-01T14:56:16.671Z,11.48
2019-05-01T14:58:46.235Z,9.53
2019-05-01T15:01:15.815Z,12.37
2019-05-01T15:03:45.428Z,12.95
2019-05-01T15:06:15.016Z,13.98
2019-05-01T15:08:44.679Z,10.55
2019-05-01T15:11:14.306Z,16.23
2019-05-01T15:13:45.599Z,16.23
2019-05-01T15:16:16.876Z,12.93
2019-05-01T15:18:48.148Z,13.32
2019-05-01T15:21:17.817Z,13.18
2019-05-01T15:23:53.623Z,12.30
2019-05-01T15:26:18.689Z,12.15
2019-05-01T15:28:48.226Z,12.00
2019-05-01T15:31:17.911Z,14.93
2019-05-01T15:33:47.536Z,12.60
2019-05-01T15:36:17.019Z,13.43
2019-05-01T15:38:46.664Z,13.88
2019-05-01T15:41:17.924Z,13.03
2019-05-01T15:43:49.217Z,12.07
2019-05-01T15:46:18.873Z,14.35
2019-05-01T15:48:48.528Z,12.95
2019-05-01T15:51:18.216Z,10.32
2019-05-01T15:53:47.888Z,13.62
2019-05-01T15:56:17.519Z,10.48
2019-05-01T15:58:47.105Z,11.53
2019-05-01T16:01:16.784Z,12.45
2019-05-01T16:03:46.477Z,13.55
2019-05-01T16:06:17.654Z,14.25
2019-05-01T16:08:47.249Z,10.48
2019-05-01T16:11:20.421Z,11.90
2019-05-01T16:13:50.099Z,12.33
2019-05-01T16:16:19.737Z,11.45
2019-05-01T16:18:49.432Z,12.63
2019-05-01T16:21:19.139Z,11.00
2019-05-01T16:23:48.796Z,9.20
2019-05-01T16:26:18.444Z,9.80
2019-05-01T16:28:48.002Z,11.90
2019-05-01T16:31:17.659Z,11.68
2019-05-01T16:33:53.634Z,11.50
2019-05-01T16:36:23.222Z,10.48
2019-05-01T16:38:54.511Z,10.43
2019-05-01T16:41:25.429Z,12.73
2019-05-01T16:43:55.070Z,12.60
2019-05-01T16:46:26.930Z,10.80
2019-05-01T16:48:56.624Z,9.90
2019-05-01T16:51:27.770Z,11.00
2019-05-01T16:53:58.450Z,11.45
2019-05-01T16:56:28.909Z,13.60
2019-05-01T17:01:31.216Z,10.88
2019-05-01T17:04:02.464Z,14.28
2019-05-01T17:06:35.082Z,10.65
2019-05-01T17:09:09.362Z,8.98
2019-05-01T17:11:39.023Z,10.88
2019-05-01T17:14:10.257Z,13.18
2019-05-01T17:16:39.936Z,12.73
2019-05-01T17:19:10.314Z,12.10
2019-05-01T17:21:40.016Z,8.13
2019-05-01T17:24:09.609Z,8.98
2019-05-01T17:26:39.355Z,11.03
2019-05-01T17:29:09.004Z,10.20
2019-05-01T17:31:38.717Z,8.23
2019-05-01T17:34:09.808Z,12.13
2019-05-01T17:36:39.948Z,9.95
2019-05-01T17:39:09.563Z,6.62
2019-05-01T17:41:39.392Z,7.85
2019-05-01T17:44:09.023Z,8.28
2019-05-01T17:46:41.951Z,9.05
2019-05-01T17:49:10.600Z,8.98
2019-05-01T17:51:42.729Z,8.23
2019-05-01T17:54:11.583Z,12.03
2019-05-01T17:56:41.344Z,9.25
2019-05-01T17:59:10.981Z,8.95
2019-05-01T18:01:42.271Z,8.55
2019-05-01T18:04:13.506Z,7.65
2019-05-01T18:06:46.628Z,11.95
2019-05-01T18:09:17.616Z,11.95
2019-05-01T18:11:52.382Z,12.23
2019-05-01T18:14:38.761Z,9.28
2019-05-01T18:17:08.775Z,7.95
2019-05-01T18:19:38.428Z,8.30
2019-05-01T18:22:09.657Z,7.83
2019-05-01T18:24:40.939Z,7.28
2019-05-01T18:27:14.699Z,7.47
2019-05-01T18:29:45.665Z,12.15
2019-05-01T18:32:18.973Z,12.00
2019-05-01T18:34:48.565Z,11.70
2019-05-01T18:37:19.760Z,9.80
2019-05-01T18:39:49.360Z,10.48
2019-05-01T18:42:18.957Z,7.50
2019-05-01T18:44:48.879Z,9.23
2019-05-01T18:47:18.630Z,11.48
2019-05-01T18:49:51.376Z,13.25
2019-05-01T18:52:21.055Z,9.80
2019-05-01T18:54:50.670Z,9.50
2019-05-01T18:57:20.301Z,10.40
2019-05-01T18:59:49.935Z,9.20
2019-05-01T19:02:20.506Z,8.30
2019-05-01T19:04:50.877Z,15.32
2019-05-01T19:07:20.393Z,9.33
2019-05-01T19:09:50.081Z,13.70
2019-05-01T19:12:19.760Z,13.83
2019-05-01T19:14:49.399Z,12.58
2019-05-01T19:17:19.079Z,11.85
2019-05-01T19:19:48.793Z,12.25
2019-05-01T19:22:18.391Z,14.20
2019-05-01T19:24:48.146Z,10.13
2019-05-01T19:27:18.880Z,11.57
2019-05-01T19:29:49.116Z,15.05
2019-05-01T19:32:19.744Z,14.15
2019-05-01T19:34:52.967Z,9.70
2019-05-01T19:37:36.741Z,11.28
2019-05-01T19:40:07.211Z,11.48
2019-05-01T19:43:00.074Z,13.62
2019-05-01T19:47:59.757Z,17.57
2019-05-01T19:50:29.363Z,18.80
2019-05-01T19:52:59.028Z,13.78
2019-05-01T19:55:28.670Z,14.73
2019-05-01T19:57:58.303Z,21.75
2019-05-01T20:00:31.279Z,15.00
2019-05-01T20:03:03.214Z,16.80
2019-05-01T20:08:01.669Z,16.05
2019-05-01T20:10:31.295Z,14.83
2019-05-01T20:13:02.207Z,10.48
2019-05-01T20:15:32.238Z,13.88
2019-05-01T20:18:01.864Z,17.05
2019-05-01T20:20:31.428Z,16.62
2019-05-01T20:23:01.124Z,15.08
2019-05-01T20:25:30.757Z,18.82
2019-05-01T20:28:00.433Z,17.55
2019-05-01T20:30:30.155Z,15.15
2019-05-01T20:33:02.123Z,16.65
2019-05-01T20:35:34.027Z,16.73
2019-05-01T20:38:03.578Z,13.40
2019-05-01T20:40:33.541Z,18.37
2019-05-01T20:43:05.828Z,15.98
2019-05-01T20:45:34.527Z,18.02
2019-05-01T20:48:05.283Z,16.02
2019-05-01T20:50:35.966Z,17.00
2019-05-01T20:53:05.566Z,17.48
2019-05-01T20:55:35.157Z,13.72
2019-05-01T20:58:06.457Z,18.27
2019-05-01T21:00:36.064Z,14.25
2019-05-01T21:03:05.751Z,18.25
2019-05-01T21:05:37.018Z,17.25
2019-05-01T21:08:08.265Z,18.17
2019-05-01T21:10:50.030Z,18.07
2019-05-01T21:13:10.830Z,17.73
2019-05-01T21:15:40.527Z,19.82
2019-05-01T21:18:10.202Z,14.70
2019-05-01T21:20:39.748Z,18.23
2019-05-01T21:23:10.566Z,19.57
2019-05-01T21:25:40.637Z,18.05
2019-05-01T21:28:10.311Z,15.75
2019-05-01T21:30:43.968Z,18.37
2019-05-01T21:33:14.373Z,16.95
2019-05-01T21:35:44.563Z,14.35
2019-05-01T21:38:14.284Z,18.82
2019-05-01T21:40:44.042Z,16.45
2019-05-01T21:43:13.758Z,14.73
2019-05-01T21:45:43.530Z,16.67
2019-05-01T21:48:13.458Z,16.95
2019-05-01T21:50:43.992Z,15.43
2019-05-01T21:53:13.817Z,18.70
2019-05-01T21:55:43.406Z,17.82
2019-05-01T21:58:15.185Z,17.82
2019-05-01T22:00:44.399Z,15.63
2019-05-01T22:03:16.720Z,18.20
2019-05-01T22:05:45.496Z,18.98
2019-05-01T22:08:15.188Z,18.67
2019-05-01T22:10:51.646Z,20.05
2019-05-01T22:13:20.413Z,19.27
2019-05-01T22:15:49.805Z,16.30
2019-05-01T22:18:21.064Z,18.27
2019-05-01T22:20:52.304Z,18.52
2019-05-01T22:23:23.602Z,14.75
2019-05-01T22:25:54.858Z,22.10
2019-05-01T22:28:26.014Z,16.35
2019-05-01T22:30:58.588Z,19.55
2019-05-01T22:33:28.368Z,19.05
2019-05-01T22:35:58.008Z,22.80
2019-05-01T22:38:27.727Z,18.50
2019-05-01T22:41:05.898Z,17.70
2019-05-01T22:43:31.341Z,17.23
2019-05-01T22:46:03.326Z,19.10
2019-05-01T22:48:33.092Z,16.35
2019-05-01T22:51:04.372Z,17.30
2019-05-01T22:53:34.058Z,17.90
2019-05-01T22:56:04.133Z,15.68
2019-05-01T22:58:35.275Z,18.05
2019-05-01T23:01:06.157Z,20.55
2019-05-01T23:03:41.148Z,18.25
2019-05-01T23:06:09.679Z,19.95
2019-05-01T23:08:39.328Z,21.37
2019-05-01T23:11:19.112Z,19.05
2019-05-01T23:13:41.827Z,19.15
2019-05-01T23:16:12.620Z,19.60
2019-05-01T23:18:42.235Z,17.75
2019-05-01T23:21:14.497Z,19.42
2019-05-01T23:23:43.323Z,19.45
2019-05-01T23:26:16.834Z,19.32
2019-05-01T23:28:44.279Z,16.30
2019-05-01T23:31:13.909Z,21.82
2019-05-01T23:33:52.810Z,18.73
2019-05-01T23:36:23.982Z,19.73
2019-05-01T23:38:53.739Z,16.93
2019-05-01T23:41:44.654Z,13.80
2019-05-01T23:43:58.318Z,17.65
2019-05-01T23:46:26.039Z,18.62
2019-05-01T23:48:55.736Z,17.25
2019-05-01T23:51:28.567Z,16.37
2019-05-01T23:53:56.706Z,16.52
2019-05-01T23:56:26.363Z,22.73
2019-05-01T23:58:56.096Z,20.30
